sensor_id;sensor_type;location;lat;lon;timestamp;P1;durP1;ratioP1;P2;durP2;ratioP2
70549;SDS011;58101;48.658;2.328;2023-04-03T00:01:12;17.63;;;7.65;;
70549;SDS011;58101;48.658;2.328;2023-04-03T00:03:38;13.70;;;6.35;;
70549;SDS011;58101;48.658;2.328;2023-04-03T00:06:04;20.27;;;7.60;;
70549;SDS011;58101;48.658;2.328;2023-04-03T00:08:31;16.08;;;7.20;;
70549;SDS011;58101;48.658;2.328;2023-04-03T00:10:57;17.35;;;7.70;;
70549;SDS011;58101;48.658;2.328;2023-04-03T00:13:23;16.42;;;6.95;;
70549;SDS011;58101;48.658;2.328;2023-04-03T00:15:50;18.10;;;7.22;;
70549;SDS011;58101;48.658;2.328;2023-04-03T00:18:16;16.25;;;7.20;;
70549;SDS011;58101;48.658;2.328;2023-04-03T00:20:42;17.75;;;8.18;;
70549;SDS011;58101;48.658;2.328;2023-04-03T00:23:08;16.48;;;7.35;;
70549;SDS011;58101;48.658;2.328;2023-04-03T00:25:33;18.20;;;7.38;;
70549;SDS011;58101;48.658;2.328;2023-04-03T00:27:59;17.55;;;7.30;;
70549;SDS011;58101;48.658;2.328;2023-04-03T00:30:25;18.35;;;7.35;;
70549;SDS011;58101;48.658;2.328;2023-04-03T00:32:51;19.88;;;7.70;;
70549;SDS011;58101;48.658;2.328;2023-04-03T00:35:18;18.23;;;7.63;;
70549;SDS011;58101;48.658;2.328;2023-04-03T00:37:45;19.33;;;7.45;;
70549;SDS011;58101;48.658;2.328;2023-04-03T00:40:11;16.70;;;7.25;;
70549;SDS011;58101;48.658;2.328;2023-04-03T00:42:39;20.60;;;7.97;;
70549;SDS011;58101;48.658;2.328;2023-04-03T00:47:38;16.92;;;6.55;;
70549;SDS011;58101;48.658;2.328;2023-04-03T00:50:05;16.42;;;7.40;;
70549;SDS011;58101;48.658;2.328;2023-04-03T00:52:31;15.80;;;7.60;;
70549;SDS011;58101;48.658;2.328;2023-04-03T00:54:59;17.98;;;8.10;;
70549;SDS011;58101;48.658;2.328;2023-04-03T00:57:30;16.15;;;7.30;;
70549;SDS011;58101;48.658;2.328;2023-04-03T00:59:59;19.40;;;8.40;;
70549;SDS011;58101;48.658;2.328;2023-04-03T01:02:29;16.65;;;7.93;;
70549;SDS011;58101;48.658;2.328;2023-04-03T01:04:55;19.35;;;8.65;;
70549;SDS011;58101;48.658;2.328;2023-04-03T01:07:22;16.10;;;7.75;;
70549;SDS011;58101;48.658;2.328;2023-04-03T01:09:52;16.88;;;7.65;;
70549;SDS011;58101;48.658;2.328;2023-04-03T01:12:22;18.50;;;8.27;;
70549;SDS011;58101;48.658;2.328;2023-04-03T01:14:50;17.73;;;8.38;;
70549;SDS011;58101;48.658;2.328;2023-04-03T01:17:34;17.70;;;8.35;;
70549;SDS011;58101;48.658;2.328;2023-04-03T01:23:20;19.23;;;7.63;;
70549;SDS011;58101;48.658;2.328;2023-04-03T01:28:07;22.35;;;8.20;;
70549;SDS011;58101;48.658;2.328;2023-04-03T01:30:37;19.48;;;8.52;;
70549;SDS011;58101;48.658;2.328;2023-04-03T01:33:10;21.88;;;9.82;;
70549;SDS011;58101;48.658;2.328;2023-04-03T01:35:36;22.25;;;9.70;;
70549;SDS011;58101;48.658;2.328;2023-04-03T01:38:02;22.13;;;8.68;;
70549;SDS011;58101;48.658;2.328;2023-04-03T01:40:28;22.10;;;9.20;;
70549;SDS011;58101;48.658;2.328;2023-04-03T01:42:53;19.73;;;8.70;;
70549;SDS011;58101;48.658;2.328;2023-04-03T01:45:19;24.55;;;9.07;;
70549;SDS011;58101;48.658;2.328;2023-04-03T01:47:45;19.17;;;8.55;;
70549;SDS011;58101;48.658;2.328;2023-04-03T01:50:11;22.63;;;8.75;;
70549;SDS011;58101;48.658;2.328;2023-04-03T01:52:36;17.95;;;8.35;;
70549;SDS011;58101;48.658;2.328;2023-04-03T01:55:02;20.25;;;9.23;;
70549;SDS011;58101;48.658;2.328;2023-04-03T01:57:28;21.80;;;8.90;;
70549;SDS011;58101;48.658;2.328;2023-04-03T01:59:53;19.23;;;8.15;;
70549;SDS011;58101;48.658;2.328;2023-04-03T02:02:19;23.60;;;8.73;;
70549;SDS011;58101;48.658;2.328;2023-04-03T02:04:45;20.25;;;9.07;;
70549;SDS011;58101;48.658;2.328;2023-04-03T02:07:11;21.55;;;8.73;;
70549;SDS011;58101;48.658;2.328;2023-04-03T02:09:36;19.25;;;8.15;;
70549;SDS011;58101;48.658;2.328;2023-04-03T02:12:02;19.65;;;8.15;;
70549;SDS011;58101;48.658;2.328;2023-04-03T02:14:28;21.10;;;9.00;;
70549;SDS011;58101;48.658;2.328;2023-04-03T02:16:53;22.33;;;8.65;;
70549;SDS011;58101;48.658;2.328;2023-04-03T02:19:19;19.67;;;8.98;;
70549;SDS011;58101;48.658;2.328;2023-04-03T02:21:45;19.20;;;8.65;;
70549;SDS011;58101;48.658;2.328;2023-04-03T02:24:10;24.65;;;9.32;;
70549;SDS011;58101;48.658;2.328;2023-04-03T02:26:36;19.95;;;8.63;;
70549;SDS011;58101;48.658;2.328;2023-04-03T02:29:03;19.75;;;9.07;;
70549;SDS011;58101;48.658;2.328;2023-04-03T02:31:28;19.70;;;9.77;;
70549;SDS011;58101;48.658;2.328;2023-04-03T02:33:54;21.55;;;9.40;;
70549;SDS011;58101;48.658;2.328;2023-04-03T02:36:20;23.45;;;8.85;;
70549;SDS011;58101;48.658;2.328;2023-04-03T02:38:46;21.10;;;9.57;;
70549;SDS011;58101;48.658;2.328;2023-04-03T02:41:11;19.63;;;8.48;;
70549;SDS011;58101;48.658;2.328;2023-04-03T02:43:38;20.52;;;8.90;;
70549;SDS011;58101;48.658;2.328;2023-04-03T02:46:04;21.80;;;10.00;;
70549;SDS011;58101;48.658;2.328;2023-04-03T02:48:30;19.90;;;9.57;;
70549;SDS011;58101;48.658;2.328;2023-04-03T02:50:56;21.05;;;9.20;;
70549;SDS011;58101;48.658;2.328;2023-04-03T02:53:22;24.23;;;9.98;;
70549;SDS011;58101;48.658;2.328;2023-04-03T02:55:48;20.48;;;9.95;;
70549;SDS011;58101;48.658;2.328;2023-04-03T02:58:14;22.85;;;9.95;;
70549;SDS011;58101;48.658;2.328;2023-04-03T03:00:40;25.67;;;10.18;;
70549;SDS011;58101;48.658;2.328;2023-04-03T03:03:06;19.15;;;8.73;;
70549;SDS011;58101;48.658;2.328;2023-04-03T03:05:32;23.73;;;9.45;;
70549;SDS011;58101;48.658;2.328;2023-04-03T03:07:57;19.27;;;8.88;;
70549;SDS011;58101;48.658;2.328;2023-04-03T03:10:23;21.40;;;9.38;;
70549;SDS011;58101;48.658;2.328;2023-04-03T03:12:49;23.67;;;9.23;;
70549;SDS011;58101;48.658;2.328;2023-04-03T03:15:15;21.73;;;9.68;;
70549;SDS011;58101;48.658;2.328;2023-04-03T03:17:42;24.73;;;10.00;;
70549;SDS011;58101;48.658;2.328;2023-04-03T03:20:08;21.58;;;9.32;;
70549;SDS011;58101;48.658;2.328;2023-04-03T03:22:34;18.73;;;8.63;;
70549;SDS011;58101;48.658;2.328;2023-04-03T03:25:00;20.70;;;9.10;;
70549;SDS011;58101;48.658;2.328;2023-04-03T03:27:27;22.95;;;9.57;;
70549;SDS011;58101;48.658;2.328;2023-04-03T03:29:53;19.05;;;9.27;;
70549;SDS011;58101;48.658;2.328;2023-04-03T03:32:18;17.65;;;7.85;;
70549;SDS011;58101;48.658;2.328;2023-04-03T03:34:44;17.73;;;8.43;;
70549;SDS011;58101;48.658;2.328;2023-04-03T03:37:10;16.25;;;8.20;;
70549;SDS011;58101;48.658;2.328;2023-04-03T03:39:35;18.00;;;7.93;;
70549;SDS011;58101;48.658;2.328;2023-04-03T03:42:01;20.98;;;8.80;;
70549;SDS011;58101;48.658;2.328;2023-04-03T03:44:27;19.25;;;8.27;;
70549;SDS011;58101;48.658;2.328;2023-04-03T03:46:54;18.70;;;7.60;;
70549;SDS011;58101;48.658;2.328;2023-04-03T03:49:20;15.57;;;7.93;;
70549;SDS011;58101;48.658;2.328;2023-04-03T03:51:45;17.38;;;7.55;;
70549;SDS011;58101;48.658;2.328;2023-04-03T03:54:11;16.77;;;7.15;;
70549;SDS011;58101;48.658;2.328;2023-04-03T03:56:38;15.50;;;7.05;;
70549;SDS011;58101;48.658;2.328;2023-04-03T03:59:03;19.02;;;7.53;;
70549;SDS011;58101;48.658;2.328;2023-04-03T04:01:29;16.70;;;7.18;;
70549;SDS011;58101;48.658;2.328;2023-04-03T04:03:55;15.45;;;7.22;;
70549;SDS011;58101;48.658;2.328;2023-04-03T04:06:21;17.67;;;7.40;;
70549;SDS011;58101;48.658;2.328;2023-04-03T04:08:47;15.40;;;7.15;;
70549;SDS011;58101;48.658;2.328;2023-04-03T04:11:13;13.70;;;6.28;;
70549;SDS011;58101;48.658;2.328;2023-04-03T04:13:38;16.80;;;6.90;;
70549;SDS011;58101;48.658;2.328;2023-04-03T04:16:04;16.08;;;6.85;;
70549;SDS011;58101;48.658;2.328;2023-04-03T04:18:30;14.65;;;6.80;;
70549;SDS011;58101;48.658;2.328;2023-04-03T04:20:56;14.57;;;6.95;;
70549;SDS011;58101;48.658;2.328;2023-04-03T04:23:22;15.95;;;6.68;;
70549;SDS011;58101;48.658;2.328;2023-04-03T04:25:48;16.95;;;7.20;;
70549;SDS011;58101;48.658;2.328;2023-04-03T04:28:14;15.13;;;6.30;;
70549;SDS011;58101;48.658;2.328;2023-04-03T04:30:40;15.20;;;6.88;;
70549;SDS011;58101;48.658;2.328;2023-04-03T04:33:06;16.83;;;6.80;;
70549;SDS011;58101;48.658;2.328;2023-04-03T04:35:32;15.02;;;6.53;;
70549;SDS011;58101;48.658;2.328;2023-04-03T04:37:58;16.15;;;6.00;;
70549;SDS011;58101;48.658;2.328;2023-04-03T04:40:24;16.42;;;6.40;;
70549;SDS011;58101;48.658;2.328;2023-04-03T04:42:49;14.13;;;6.53;;
70549;SDS011;58101;48.658;2.328;2023-04-03T04:45:15;14.75;;;6.35;;
70549;SDS011;58101;48.658;2.328;2023-04-03T04:47:41;15.77;;;6.50;;
70549;SDS011;58101;48.658;2.328;2023-04-03T04:50:07;15.57;;;5.82;;
70549;SDS011;58101;48.658;2.328;2023-04-03T04:52:33;14.18;;;6.63;;
70549;SDS011;58101;48.658;2.328;2023-04-03T04:54:58;15.88;;;6.65;;
70549;SDS011;58101;48.658;2.328;2023-04-03T04:57:24;14.18;;;6.28;;
70549;SDS011;58101;48.658;2.328;2023-04-03T04:59:51;15.73;;;6.57;;
70549;SDS011;58101;48.658;2.328;2023-04-03T05:02:16;16.27;;;6.93;;
70549;SDS011;58101;48.658;2.328;2023-04-03T05:04:42;15.13;;;6.60;;
70549;SDS011;58101;48.658;2.328;2023-04-03T05:07:08;15.02;;;6.47;;
70549;SDS011;58101;48.658;2.328;2023-04-03T05:09:34;15.63;;;6.95;;
70549;SDS011;58101;48.658;2.328;2023-04-03T05:12:00;15.05;;;6.63;;
70549;SDS011;58101;48.658;2.328;2023-04-03T05:14:27;15.75;;;6.55;;
70549;SDS011;58101;48.658;2.328;2023-04-03T05:16:53;15.85;;;6.70;;
70549;SDS011;58101;48.658;2.328;2023-04-03T05:19:19;14.35;;;6.63;;
70549;SDS011;58101;48.658;2.328;2023-04-03T05:21:47;14.23;;;6.28;;
70549;SDS011;58101;48.658;2.328;2023-04-03T05:24:13;15.07;;;6.97;;
70549;SDS011;58101;48.658;2.328;2023-04-03T05:26:41;15.25;;;6.32;;
70549;SDS011;58101;48.658;2.328;2023-04-03T05:29:07;18.17;;;7.22;;
70549;SDS011;58101;48.658;2.328;2023-04-03T05:31:32;15.95;;;6.95;;
70549;SDS011;58101;48.658;2.328;2023-04-03T05:33:58;16.58;;;6.78;;
70549;SDS011;58101;48.658;2.328;2023-04-03T05:36:27;14.45;;;6.40;;
70549;SDS011;58101;48.658;2.328;2023-04-03T05:38:53;16.77;;;6.70;;
70549;SDS011;58101;48.658;2.328;2023-04-03T05:41:21;14.20;;;6.70;;
70549;SDS011;58101;48.658;2.328;2023-04-03T05:43:47;16.10;;;6.47;;
70549;SDS011;58101;48.658;2.328;2023-04-03T05:46:13;14.25;;;6.30;;
70549;SDS011;58101;48.658;2.328;2023-04-03T05:48:41;16.73;;;6.93;;
70549;SDS011;58101;48.658;2.328;2023-04-03T05:53:39;14.70;;;6.30;;
70549;SDS011;58101;48.658;2.328;2023-04-03T05:56:05;15.48;;;6.03;;
70549;SDS011;58101;48.658;2.328;2023-04-03T05:58:30;12.88;;;6.30;;
70549;SDS011;58101;48.658;2.328;2023-04-03T06:00:56;15.70;;;6.18;;
70549;SDS011;58101;48.658;2.328;2023-04-03T06:03:22;14.52;;;6.60;;
70549;SDS011;58101;48.658;2.328;2023-04-03T06:05:48;12.68;;;5.88;;
70549;SDS011;58101;48.658;2.328;2023-04-03T06:08:14;14.48;;;6.35;;
70549;SDS011;58101;48.658;2.328;2023-04-03T06:10:40;14.52;;;6.50;;
70549;SDS011;58101;48.658;2.328;2023-04-03T06:13:06;13.95;;;6.30;;
70549;SDS011;58101;48.658;2.328;2023-04-03T06:15:32;14.32;;;6.57;;
70549;SDS011;58101;48.658;2.328;2023-04-03T06:17:58;14.82;;;6.50;;
70549;SDS011;58101;48.658;2.328;2023-04-03T06:20:24;15.15;;;6.40;;
70549;SDS011;58101;48.658;2.328;2023-04-03T06:22:50;13.50;;;6.35;;
70549;SDS011;58101;48.658;2.328;2023-04-03T06:25:16;12.82;;;6.20;;
70549;SDS011;58101;48.658;2.328;2023-04-03T06:27:43;14.90;;;6.43;;
70549;SDS011;58101;48.658;2.328;2023-04-03T06:30:10;13.95;;;6.10;;
70549;SDS011;58101;48.658;2.328;2023-04-03T06:32:36;14.30;;;5.80;;
70549;SDS011;58101;48.658;2.328;2023-04-03T06:35:02;17.25;;;6.35;;
70549;SDS011;58101;48.658;2.328;2023-04-03T06:37:29;13.98;;;6.05;;
70549;SDS011;58101;48.658;2.328;2023-04-03T06:39:55;13.40;;;5.90;;
70549;SDS011;58101;48.658;2.328;2023-04-03T06:42:25;13.48;;;6.47;;
70549;SDS011;58101;48.658;2.328;2023-04-03T06:44:51;14.57;;;6.50;;
70549;SDS011;58101;48.658;2.328;2023-04-03T06:47:16;13.73;;;6.25;;
70549;SDS011;58101;48.658;2.328;2023-04-03T06:49:43;14.20;;;6.60;;
70549;SDS011;58101;48.658;2.328;2023-04-03T06:52:10;15.10;;;6.40;;
70549;SDS011;58101;48.658;2.328;2023-04-03T06:54:37;13.20;;;5.90;;
70549;SDS011;58101;48.658;2.328;2023-04-03T07:00:05;13.98;;;6.78;;
70549;SDS011;58101;48.658;2.328;2023-04-03T07:02:32;14.25;;;6.43;;
70549;SDS011;58101;48.658;2.328;2023-04-03T07:04:58;13.07;;;6.40;;
70549;SDS011;58101;48.658;2.328;2023-04-03T07:07:23;12.65;;;5.72;;
70549;SDS011;58101;48.658;2.328;2023-04-03T07:09:49;14.25;;;5.75;;
70549;SDS011;58101;48.658;2.328;2023-04-03T07:12:15;11.65;;;5.57;;
70549;SDS011;58101;48.658;2.328;2023-04-03T07:14:41;13.23;;;5.63;;
70549;SDS011;58101;48.658;2.328;2023-04-03T07:17:07;10.50;;;5.20;;
70549;SDS011;58101;48.658;2.328;2023-04-03T07:19:33;11.45;;;5.72;;
70549;SDS011;58101;48.658;2.328;2023-04-03T07:21:58;12.27;;;5.55;;
70549;SDS011;58101;48.658;2.328;2023-04-03T07:24:24;13.68;;;5.90;;
70549;SDS011;58101;48.658;2.328;2023-04-03T07:26:51;12.88;;;5.57;;
70549;SDS011;58101;48.658;2.328;2023-04-03T07:29:17;11.98;;;5.53;;
70549;SDS011;58101;48.658;2.328;2023-04-03T07:31:43;13.60;;;6.22;;
70549;SDS011;58101;48.658;2.328;2023-04-03T07:34:09;14.40;;;5.60;;
70549;SDS011;58101;48.658;2.328;2023-04-03T07:36:36;12.73;;;5.47;;
70549;SDS011;58101;48.658;2.328;2023-04-03T07:39:02;13.07;;;5.60;;
70549;SDS011;58101;48.658;2.328;2023-04-03T07:41:28;11.48;;;5.53;;
70549;SDS011;58101;48.658;2.328;2023-04-03T07:43:55;11.93;;;5.63;;
70549;SDS011;58101;48.658;2.328;2023-04-03T07:46:21;10.75;;;5.13;;
70549;SDS011;58101;48.658;2.328;2023-04-03T07:48:47;10.00;;;5.05;;
70549;SDS011;58101;48.658;2.328;2023-04-03T07:51:13;13.57;;;5.53;;
70549;SDS011;58101;48.658;2.328;2023-04-03T07:53:39;10.20;;;4.63;;
70549;SDS011;58101;48.658;2.328;2023-04-03T07:56:05;10.20;;;5.03;;
70549;SDS011;58101;48.658;2.328;2023-04-03T07:58:31;12.02;;;5.13;;
70549;SDS011;58101;48.658;2.328;2023-04-03T08:00:57;11.93;;;4.72;;
70549;SDS011;58101;48.658;2.328;2023-04-03T08:03:23;12.35;;;4.80;;
70549;SDS011;58101;48.658;2.328;2023-04-03T08:05:49;12.85;;;5.53;;
70549;SDS011;58101;48.658;2.328;2023-04-03T08:08:17;14.70;;;4.93;;
70549;SDS011;58101;48.658;2.328;2023-04-03T08:10:47;10.23;;;4.85;;
70549;SDS011;58101;48.658;2.328;2023-04-03T08:13:14;11.13;;;4.90;;
70549;SDS011;58101;48.658;2.328;2023-04-03T08:15:40;9.38;;;4.53;;
70549;SDS011;58101;48.658;2.328;2023-04-03T08:18:05;10.60;;;4.75;;
70549;SDS011;58101;48.658;2.328;2023-04-03T08:20:31;12.43;;;5.07;;
70549;SDS011;58101;48.658;2.328;2023-04-03T08:22:57;10.23;;;4.32;;
70549;SDS011;58101;48.658;2.328;2023-04-03T08:25:22;10.48;;;4.70;;
70549;SDS011;58101;48.658;2.328;2023-04-03T08:27:48;11.95;;;5.97;;
70549;SDS011;58101;48.658;2.328;2023-04-03T08:30:14;9.15;;;4.20;;
70549;SDS011;58101;48.658;2.328;2023-04-03T08:32:39;9.95;;;4.20;;
70549;SDS011;58101;48.658;2.328;2023-04-03T08:35:08;10.40;;;4.15;;
70549;SDS011;58101;48.658;2.328;2023-04-03T08:37:37;8.60;;;3.92;;
70549;SDS011;58101;48.658;2.328;2023-04-03T08:40:04;9.07;;;3.70;;
70549;SDS011;58101;48.658;2.328;2023-04-03T08:48:14;8.85;;;2.85;;
70549;SDS011;58101;48.658;2.328;2023-04-03T08:50:47;7.15;;;2.50;;
70549;SDS011;58101;48.658;2.328;2023-04-03T08:59:35;7.32;;;2.70;;
70549;SDS011;58101;48.658;2.328;2023-04-03T09:56:29;7.05;;;2.40;;
70549;SDS011;58101;48.658;2.328;2023-04-03T10:01:32;17.40;;;5.30;;
70549;SDS011;58101;48.658;2.328;2023-04-03T10:04:03;8.25;;;2.97;;
70549;SDS011;58101;48.658;2.328;2023-04-03T10:06:34;7.85;;;3.13;;
70549;SDS011;58101;48.658;2.328;2023-04-03T10:09:05;5.75;;;2.40;;
70549;SDS011;58101;48.658;2.328;2023-04-03T10:14:38;6.03;;;2.35;;
70549;SDS011;58101;48.658;2.328;2023-04-03T10:25:10;6.13;;;2.00;;
70549;SDS011;58101;48.658;2.328;2023-04-03T10:30:40;5.93;;;2.15;;
70549;SDS011;58101;48.658;2.328;2023-04-03T10:33:32;6.93;;;2.03;;
70549;SDS011;58101;48.658;2.328;2023-04-03T10:42:00;8.45;;;2.40;;
70549;SDS011;58101;48.658;2.328;2023-04-03T10:44:44;6.53;;;2.28;;
70549;SDS011;58101;48.658;2.328;2023-04-03T10:50:48;8.40;;;2.25;;
70549;SDS011;58101;48.658;2.328;2023-04-03T10:56:19;6.65;;;1.85;;
70549;SDS011;58101;48.658;2.328;2023-04-03T10:59:02;5.57;;;2.08;;
70549;SDS011;58101;48.658;2.328;2023-04-03T11:01:41;6.32;;;2.00;;
70549;SDS011;58101;48.658;2.328;2023-04-03T11:04:09;5.00;;;2.00;;
70549;SDS011;58101;48.658;2.328;2023-04-03T11:07:38;5.80;;;1.95;;
70549;SDS011;58101;48.658;2.328;2023-04-03T11:09:53;5.72;;;1.80;;
70549;SDS011;58101;48.658;2.328;2023-04-03T11:12:28;6.45;;;2.20;;
70549;SDS011;58101;48.658;2.328;2023-04-03T11:15:03;6.43;;;2.25;;
70549;SDS011;58101;48.658;2.328;2023-04-03T11:17:35;5.20;;;2.03;;
70549;SDS011;58101;48.658;2.328;2023-04-03T11:20:20;5.90;;;2.50;;
70549;SDS011;58101;48.658;2.328;2023-04-03T11:23:00;6.65;;;2.00;;
70549;SDS011;58101;48.658;2.328;2023-04-03T11:25:31;5.70;;;2.10;;
70549;SDS011;58101;48.658;2.328;2023-04-03T11:28:00;6.13;;;2.10;;
70549;SDS011;58101;48.658;2.328;2023-04-03T11:33:05;5.32;;;1.83;;
70549;SDS011;58101;48.658;2.328;2023-04-03T11:35:45;5.47;;;1.90;;
70549;SDS011;58101;48.658;2.328;2023-04-03T11:38:30;7.00;;;2.30;;
70549;SDS011;58101;48.658;2.328;2023-04-03T11:41:01;6.32;;;2.40;;
70549;SDS011;58101;48.658;2.328;2023-04-03T11:43:32;5.85;;;2.60;;
70549;SDS011;58101;48.658;2.328;2023-04-03T11:46:02;5.93;;;2.13;;
70549;SDS011;58101;48.658;2.328;2023-04-03T11:51:01;7.75;;;2.30;;
70549;SDS011;58101;48.658;2.328;2023-04-03T11:53:47;7.45;;;2.38;;
70549;SDS011;58101;48.658;2.328;2023-04-03T11:56:34;5.63;;;2.03;;
70549;SDS011;58101;48.658;2.328;2023-04-03T12:01:54;7.22;;;2.13;;
70549;SDS011;58101;48.658;2.328;2023-04-03T12:04:23;7.63;;;2.10;;
70549;SDS011;58101;48.658;2.328;2023-04-03T12:06:53;6.00;;;2.03;;
70549;SDS011;58101;48.658;2.328;2023-04-03T12:11:57;7.00;;;2.17;;
70549;SDS011;58101;48.658;2.328;2023-04-03T12:14:25;5.97;;;2.20;;
70549;SDS011;58101;48.658;2.328;2023-04-03T12:16:54;6.13;;;2.10;;
70549;SDS011;58101;48.658;2.328;2023-04-03T12:19:32;6.32;;;2.10;;
70549;SDS011;58101;48.658;2.328;2023-04-03T12:24:28;6.32;;;1.95;;
70549;SDS011;58101;48.658;2.328;2023-04-03T12:37:40;6.30;;;1.92;;
70549;SDS011;58101;48.658;2.328;2023-04-03T12:45:22;5.38;;;1.80;;
70549;SDS011;58101;48.658;2.328;2023-04-03T12:47:52;6.65;;;2.00;;
70549;SDS011;58101;48.658;2.328;2023-04-03T12:50:29;6.25;;;2.10;;
70549;SDS011;58101;48.658;2.328;2023-04-03T12:53:05;6.25;;;2.00;;
70549;SDS011;58101;48.658;2.328;2023-04-03T12:55:36;6.72;;;1.90;;
70549;SDS011;58101;48.658;2.328;2023-04-03T13:01:01;6.88;;;1.77;;
70549;SDS011;58101;48.658;2.328;2023-04-03T13:03:34;6.03;;;1.95;;
70549;SDS011;58101;48.658;2.328;2023-04-03T13:06:03;8.95;;;2.40;;
70549;SDS011;58101;48.658;2.328;2023-04-03T13:08:30;6.07;;;1.90;;
70549;SDS011;58101;48.658;2.328;2023-04-03T13:11:11;7.13;;;1.70;;
70549;SDS011;58101;48.658;2.328;2023-04-03T13:13:47;6.20;;;1.90;;
70549;SDS011;58101;48.658;2.328;2023-04-03T13:16:23;5.85;;;1.70;;
70549;SDS011;58101;48.658;2.328;2023-04-03T13:18:50;6.90;;;1.65;;
70549;SDS011;58101;48.658;2.328;2023-04-03T13:21:18;5.82;;;1.80;;
70549;SDS011;58101;48.658;2.328;2023-04-03T13:23:51;6.15;;;1.92;;
70549;SDS011;58101;48.658;2.328;2023-04-03T13:26:21;6.60;;;1.90;;
70549;SDS011;58101;48.658;2.328;2023-04-03T13:28:49;7.70;;;1.75;;
70549;SDS011;58101;48.658;2.328;2023-04-03T13:31:34;6.82;;;1.77;;
70549;SDS011;58101;48.658;2.328;2023-04-03T13:34:12;7.32;;;2.08;;
70549;SDS011;58101;48.658;2.328;2023-04-03T13:36:45;6.22;;;1.80;;
70549;SDS011;58101;48.658;2.328;2023-04-03T13:39:25;6.25;;;1.70;;
70549;SDS011;58101;48.658;2.328;2023-04-03T13:41:51;5.47;;;1.75;;
70549;SDS011;58101;48.658;2.328;2023-04-03T13:49:18;7.18;;;2.00;;
70549;SDS011;58101;48.658;2.328;2023-04-03T13:51:45;6.55;;;2.20;;
70549;SDS011;58101;48.658;2.328;2023-04-03T13:56:58;7.95;;;2.22;;
70549;SDS011;58101;48.658;2.328;2023-04-03T13:59:32;7.43;;;2.10;;
70549;SDS011;58101;48.658;2.328;2023-04-03T14:07:09;6.45;;;1.80;;
70549;SDS011;58101;48.658;2.328;2023-04-03T14:09:38;6.72;;;2.17;;
70549;SDS011;58101;48.658;2.328;2023-04-03T14:12:06;6.03;;;2.00;;
70549;SDS011;58101;48.658;2.328;2023-04-03T14:14:35;5.80;;;2.00;;
70549;SDS011;58101;48.658;2.328;2023-04-03T14:17:10;6.95;;;1.92;;
70549;SDS011;58101;48.658;2.328;2023-04-03T14:19:41;7.45;;;2.10;;
70549;SDS011;58101;48.658;2.328;2023-04-03T14:22:13;6.82;;;1.90;;
70549;SDS011;58101;48.658;2.328;2023-04-03T14:24:44;7.50;;;2.10;;
70549;SDS011;58101;48.658;2.328;2023-04-03T14:27:16;7.53;;;2.38;;
70549;SDS011;58101;48.658;2.328;2023-04-03T14:29:42;8.35;;;2.25;;
70549;SDS011;58101;48.658;2.328;2023-04-03T14:32:10;6.07;;;1.92;;
70549;SDS011;58101;48.658;2.328;2023-04-03T14:34:38;11.80;;;2.22;;
70549;SDS011;58101;48.658;2.328;2023-04-03T14:37:04;16.50;;;2.92;;
70549;SDS011;58101;48.658;2.328;2023-04-03T14:39:34;6.70;;;1.90;;
70549;SDS011;58101;48.658;2.328;2023-04-03T14:41:59;6.18;;;1.90;;
70549;SDS011;58101;48.658;2.328;2023-04-03T14:44:25;6.38;;;1.80;;
70549;SDS011;58101;48.658;2.328;2023-04-03T14:46:51;6.72;;;2.00;;
70549;SDS011;58101;48.658;2.328;2023-04-03T14:49:20;7.18;;;1.80;;
70549;SDS011;58101;48.658;2.328;2023-04-03T14:51:48;8.30;;;1.98;;
70549;SDS011;58101;48.658;2.328;2023-04-03T14:54:19;6.28;;;1.90;;
70549;SDS011;58101;48.658;2.328;2023-04-03T14:56:50;6.53;;;2.03;;
70549;SDS011;58101;48.658;2.328;2023-04-03T14:59:16;8.23;;;1.90;;
70549;SDS011;58101;48.658;2.328;2023-04-03T15:01:44;7.13;;;1.83;;
70549;SDS011;58101;48.658;2.328;2023-04-03T15:04:18;7.10;;;2.00;;
70549;SDS011;58101;48.658;2.328;2023-04-03T15:06:45;6.40;;;1.95;;
70549;SDS011;58101;48.658;2.328;2023-04-03T15:09:22;6.25;;;2.00;;
70549;SDS011;58101;48.658;2.328;2023-04-03T15:11:50;8.25;;;2.15;;
70549;SDS011;58101;48.658;2.328;2023-04-03T15:14:17;6.15;;;1.90;;
70549;SDS011;58101;48.658;2.328;2023-04-03T15:16:43;8.70;;;2.45;;
70549;SDS011;58101;48.658;2.328;2023-04-03T15:19:10;7.43;;;2.40;;
70549;SDS011;58101;48.658;2.328;2023-04-03T15:21:36;8.05;;;2.47;;
70549;SDS011;58101;48.658;2.328;2023-04-03T15:24:02;9.25;;;2.70;;
70549;SDS011;58101;48.658;2.328;2023-04-03T15:26:28;7.13;;;2.25;;
70549;SDS011;58101;48.658;2.328;2023-04-03T15:28:54;7.55;;;2.30;;
70549;SDS011;58101;48.658;2.328;2023-04-03T15:31:20;7.00;;;2.20;;
70549;SDS011;58101;48.658;2.328;2023-04-03T15:33:46;16.42;;;4.40;;
70549;SDS011;58101;48.658;2.328;2023-04-03T15:36:11;9.05;;;2.30;;
70549;SDS011;58101;48.658;2.328;2023-04-03T15:38:37;7.15;;;2.10;;
70549;SDS011;58101;48.658;2.328;2023-04-03T15:41:03;6.28;;;2.03;;
70549;SDS011;58101;48.658;2.328;2023-04-03T15:43:29;6.93;;;2.08;;
70549;SDS011;58101;48.658;2.328;2023-04-03T15:45:58;5.95;;;2.00;;
70549;SDS011;58101;48.658;2.328;2023-04-03T15:48:25;6.32;;;2.08;;
70549;SDS011;58101;48.658;2.328;2023-04-03T15:50:52;7.15;;;2.25;;
70549;SDS011;58101;48.658;2.328;2023-04-03T15:53:19;7.10;;;2.10;;
70549;SDS011;58101;48.658;2.328;2023-04-03T15:55:45;7.03;;;2.10;;
70549;SDS011;58101;48.658;2.328;2023-04-03T15:58:14;7.32;;;1.83;;
70549;SDS011;58101;48.658;2.328;2023-04-03T16:00:39;6.60;;;1.95;;
70549;SDS011;58101;48.658;2.328;2023-04-03T16:03:07;5.95;;;2.03;;
70549;SDS011;58101;48.658;2.328;2023-04-03T16:05:36;7.03;;;2.17;;
70549;SDS011;58101;48.658;2.328;2023-04-03T16:08:03;7.10;;;1.90;;
70549;SDS011;58101;48.658;2.328;2023-04-03T16:10:30;7.97;;;2.50;;
70549;SDS011;58101;48.658;2.328;2023-04-03T16:12:56;7.18;;;2.03;;
70549;SDS011;58101;48.658;2.328;2023-04-03T16:15:24;6.88;;;2.00;;
70549;SDS011;58101;48.658;2.328;2023-04-03T16:17:54;7.90;;;2.30;;
70549;SDS011;58101;48.658;2.328;2023-04-03T16:20:19;6.00;;;2.10;;
70549;SDS011;58101;48.658;2.328;2023-04-03T16:25:12;7.85;;;2.60;;
70549;SDS011;58101;48.658;2.328;2023-04-03T16:27:38;11.63;;;4.40;;
70549;SDS011;58101;48.658;2.328;2023-04-03T16:30:04;8.75;;;3.22;;
70549;SDS011;58101;48.658;2.328;2023-04-03T16:32:31;9.18;;;3.55;;
70549;SDS011;58101;48.658;2.328;2023-04-03T16:34:57;15.52;;;5.07;;
70549;SDS011;58101;48.658;2.328;2023-04-03T16:37:23;7.25;;;2.50;;
70549;SDS011;58101;48.658;2.328;2023-04-03T16:39:50;8.30;;;2.38;;
70549;SDS011;58101;48.658;2.328;2023-04-03T16:42:15;6.60;;;2.33;;
70549;SDS011;58101;48.658;2.328;2023-04-03T16:44:41;9.23;;;3.20;;
70549;SDS011;58101;48.658;2.328;2023-04-03T16:47:07;7.47;;;2.03;;
70549;SDS011;58101;48.658;2.328;2023-04-03T16:49:37;10.00;;;3.00;;
70549;SDS011;58101;48.658;2.328;2023-04-03T16:52:03;8.32;;;3.00;;
70549;SDS011;58101;48.658;2.328;2023-04-03T16:54:30;8.55;;;2.30;;
70549;SDS011;58101;48.658;2.328;2023-04-03T16:56:56;7.82;;;3.05;;
70549;SDS011;58101;48.658;2.328;2023-04-03T16:59:22;9.43;;;3.38;;
70549;SDS011;58101;48.658;2.328;2023-04-03T17:01:48;11.18;;;4.90;;
70549;SDS011;58101;48.658;2.328;2023-04-03T17:04:13;8.05;;;2.42;;
70549;SDS011;58101;48.658;2.328;2023-04-03T17:06:39;9.02;;;3.63;;
70549;SDS011;58101;48.658;2.328;2023-04-03T17:09:05;7.65;;;2.85;;
70549;SDS011;58101;48.658;2.328;2023-04-03T17:11:31;6.10;;;1.90;;
70549;SDS011;58101;48.658;2.328;2023-04-03T17:13:57;7.68;;;2.13;;
70549;SDS011;58101;48.658;2.328;2023-04-03T17:16:23;7.47;;;2.00;;
70549;SDS011;58101;48.658;2.328;2023-04-03T17:21:15;7.25;;;2.40;;
70549;SDS011;58101;48.658;2.328;2023-04-03T17:23:42;7.97;;;2.40;;